• Join FlightAware (Why Join?)
  • Login
  • US Flag 
01:13PM EDT


 

Airport Tracker/Info


-or-


 

Live Flight TrackerFlight Track Log ✈ SWA378 ✈ 10-May-2013 ✈ KBWI - KALB

Flight Track Log - Related Links

Times and Time Zones

All times are in EDT time to prevent confusion due to time zone crossing. See the SWA378 flight status page for this flight to view local times or setup timezone preferences in your user account.

Time Position Orientation Groundspeed Altitude Reporting Facility
EDT Latitude Longitude Course Direction KTS MPH feet Rate Location/Type
11:17PM 39.1500 -76.6333 North 274 315 5,000  Level Potomac TRACON
11:18PM 39.2833 -76.6333 360° North 306 352 10,000 1,320 Climbing Potomac TRACON
11:20PM 39.4519 -76.5035 270° West  Level Estimated
11:21PM 39.4667 -76.7167 270° West 308 354 10,500  Level Potomac TRACON
11:22PM 39.8597 -77.4500 North  Level FlightAware Approximate
11:22PM 39.4833 -76.8167 282° West 288 331 11,000  Level Potomac TRACON
11:23PM 39.5000 -76.9167 282° West 283 326 11,000 420 Level Potomac TRACON
11:23PM 39.5167 -77.0000 285° West 280 322 11,800 1,500 Climbing Potomac TRACON
11:25PM 39.5500 -77.1167 290° West 304 350 14,000 1,020 Climbing Potomac TRACON
11:26PM 39.5667 -77.2167 282° West 309 356 14,000 600 Level Potomac TRACON
11:27PM 39.5375 -77.4133 259° West 289 333 15,900 660 Climbing Washington Center
11:28PM 39.6242 -77.4611 337° Northwest 250 288 16,000 60 Climbing Washington Center
11:29PM 39.6739 -77.4903 336° Northwest 386 444 16,000 540 Level New York Center
11:30PM 39.7669 -77.5775 324° Northwest 329 379 17,000 1,140 Climbing New York Center
11:31PM 39.8619 -77.6650 325° Northwest 363 418 18,500 1,980 Climbing New York Center
11:32PM 39.9536 -77.7364 329° Northwest 378 435 21,000 2,340 Climbing New York Center
11:33PM 40.0647 -77.6933 17° North 372 428 23,200 2,220 Climbing New York Center
11:34PM 40.1572 -77.6100 35° Northeast 390 449 25,600 1,860 Climbing New York Center
11:35PM 40.2564 -77.5136 37° Northeast 412 474 27,000 660 Climbing New York Center
11:36PM 40.3561 -77.4117 38° Northeast 439 505 27,000  Level New York Center
11:37PM 40.4731 -77.2975 37° Northeast 462 532 27,000  Level New York Center
11:38PM 40.5789 -77.1900 38° Northeast 467 537 27,000  Level New York Center
11:39PM 40.6844 -77.0875 36° Northeast 467 537 27,000  Level New York Center
11:40PM 40.7903 -76.9794 38° Northeast 467 537 27,000  Level New York Center
11:41PM 40.8958 -76.8736 37° Northeast 467 537 27,000 -480 Level New York Center
11:42PM 40.9969 -76.7700 38° Northeast 467 537 26,100 -960 Descending New York Center
11:43PM 41.1000 -76.6661 37° Northeast 467 537 25,100 -600 Descending New York Center
11:44PM 41.2008 -76.5647 37° Northeast 462 532 25,000 -60 Descending New York Center
11:45PM 41.3036 -76.4631 37° Northeast 462 532 25,000  Level New York Center
11:46PM 41.4067 -76.3556 38° Northeast 462 532 25,000  Level New York Center
11:47PM 41.5097 -76.2478 38° Northeast 467 537 25,000  Level New York Center
11:48PM 41.6014 -76.1525 38° Northeast 461 531 25,000  Level New York Center
11:49PM 41.7042 -76.0469 37° Northeast 461 531 25,000 -240 Level New York Center
11:51PM 41.9075 -75.8353 38° Northeast 466 536 24,400 -360 Descending Boston Center
11:52PM 42.0067 -75.7289 39° Northeast 461 531 24,000 -240 Descending Boston Center
11:53PM 42.1056 -75.6247 38° Northeast 456 525 24,000  Level Boston Center
11:54PM 42.1839 -75.5000 50° Northeast 442 509 24,000  Level Boston Center
11:55PM 42.2339 -75.3481 66° East 434 499 24,000 -300 Level Boston Center
11:56PM 42.2856 -75.2017 64° Northeast 434 499 23,400 -1,560 Descending Boston Center
11:57PM 42.3394 -75.0411 66° East 429 494 20,900 -2,340 Descending Boston Center
11:58PM 42.3906 -74.8942 65° Northeast 429 494 18,800 -2,280 Descending Boston Center
11:59PM 42.4197 -74.7969 68° East 425 489 17,200 -2,100 Descending Boston Center
11:59PM 42.4308 -74.7608 67° East 424 488 16,700 -2,160 Descending Boston Center
12:00AM 42.4531 -74.6997 64° Northeast 416 479 15,700 -2,340 Descending Boston Center
12:00AM 42.4819 -74.6078 67° East 417 480 14,400 -2,220 Descending Boston Center
12:01AM 42.5017 -74.5578 62° Northeast 410 472 13,500 -2,040 Descending Boston Center
12:01AM 42.5239 -74.4825 68° East 411 473 12,400 -2,100 Descending Boston Center
12:02AM 42.5456 -74.4214 64° Northeast 393 452 11,400 -2,220 Descending Boston Center
12:02AM 42.5722 -74.3375 67° East 388 447 10,200 -1,440 Descending Boston Center
12:03AM 42.5875 -74.2956 64° Northeast 370 426 10,000 -300 Descending Boston Center
12:03AM 42.6072 -74.2342 66° East 355 409 9,900 -600 Descending Boston Center
12:04AM 42.6267 -74.1839 62° Northeast 305 351 9,400 -1,500 Descending Boston Center
12:04AM 42.6669 -74.1372 40° Northeast 304 350 8,400 -1,680 Descending Boston Center
12:04AM 42.6861 -74.1206 33° Northeast 296 341 7,900 -1,200 Descending Boston Center
12:05AM 42.7200 -74.0847 38° Northeast 293 337 7,200 -1,620 Descending Boston Center
12:05AM 42.7558 -74.0519 34° Northeast 302 348 6,300 -2,340 Descending Boston Center
12:06AM 42.8064 -74.0078 33° Northeast 299 344 4,900 -1,800 Descending Boston Center
12:06AM 42.8275 -73.9831 41° Northeast 321 369 4,500 -840 Descending Boston Center
12:07AM 42.8678 -73.9414 37° Northeast 304 350 4,100 -600 Descending Boston Center
12:07AM 42.8931 -73.9108 42° Northeast 296 341 3,900 -720 Descending Boston Center
12:08AM 42.9044 -73.8489 76° East 248 285 3,400 -1,020 Descending Boston Center
12:09AM 42.8922 -73.8172 118° Southeast 191 220 2,800 -1,320 Descending Boston Center
12:09AM 42.8672 -73.8111 170° South 136 157 2,100 -840 Descending Boston Center
12:10AM 42.8486 -73.8136 186° South 140 161 2,000 -120 Descending Boston Center
12:10AM 42.8447 -73.7936 105° East 124 143 2,000 -720 Level Boston Center
12:11AM 42.8089 -73.8100 199° South 136 157 1,300 -960 Descending Boston Center
12:12AM 42.7756 -73.8064 175° South 122 140 600 -720 Descending Boston Center